Olesa de Montserrat, Spain
Current Conditions -  °F | °C
As of 5:00 PM on Tuesday 21 Oct 2014 (Local Time) from LELL Reporting Station
Clear Clear  
Wind Chill: 75°   Ceiling: Unl
Heat Index: 75°   Visibility: 6mi
Dew Point: 64°   Wind: 3mph
Humidity: 69%   Direction: 140°SE
Pressure: 30.06"   Gusts: NA
Location:  41.54°N, 1.89°E
Report Text: LELL 211500Z 14003KT 110V170 CAVOK 24/18 Q1018
Loading
Personal Weather Stations






























Interactive Weather Map
Tropical Storm Tracking
New forecast layout! Learn more

10-Day Weather Forecast

Advertisements
Track Severe Weather on mobile